IBE2KC LEBL-LEPA
Flight info
| Callsign | IBE2KC |
|---|---|
| Flight time | 0h 30m |
| Altitude | 19000 |
| Route | LARPA N859 TOLSO |
| Aircraft | A20N/M-SDE2E3FGHIRWXY/LB1 |
Departure
| Time | 2026-05-04 16:14 |
|---|---|
| Airport | Josep Tarradellas Barcelona-El Prat Airport (LEBL) |
Arrival
| Time | 2026-05-04 16:45 |
|---|---|
| Airport | Palma de Mallorca Airport (LEPA) |
| Time | Latitude | Longitude | Altitude | Speed | Heading |
|---|---|---|---|---|---|
| 2026-05-04 15:43 | 41.28659 | 2.07543 | 19 ft | 0 kts | 321° |
| 2026-05-04 16:00 | 41.28654 | 2.07549 | 20 ft | 2 kts | 321° |
| 2026-05-04 16:00 | 41.28651 | 2.07552 | 20 ft | 1 kts | 321° |
| 2026-05-04 16:00 | 41.28646 | 2.07558 | 21 ft | 0 kts | 321° |
| 2026-05-04 16:01 | 41.28638 | 2.07566 | 19 ft | 1 kts | 321° |
| 2026-05-04 16:01 | 41.28629 | 2.07576 | 19 ft | 2 kts | 321° |
| 2026-05-04 16:02 | 41.28618 | 2.07588 | 21 ft | 2 kts | 321° |
| 2026-05-04 16:02 | 41.28607 | 2.07600 | 22 ft | 2 kts | 321° |
| 2026-05-04 16:02 | 41.28575 | 2.07623 | 19 ft | 3 kts | 53° |
| 2026-05-04 16:03 | 41.28566 | 2.07606 | 17 ft | 0 kts | 67° |
| 2026-05-04 16:05 | 41.28566 | 2.07607 | 17 ft | 0 kts | 67° |
| 2026-05-04 16:06 | 41.28571 | 2.07622 | 20 ft | 4 kts | 66° |
| 2026-05-04 16:06 | 41.28539 | 2.07787 | 16 ft | 9 kts | 73° |
| 2026-05-04 16:07 | 41.28574 | 2.07888 | 16 ft | 10 kts | 65° |
| 2026-05-04 16:07 | 41.28661 | 2.08144 | 18 ft | 10 kts | 65° |
| 2026-05-04 16:08 | 41.28682 | 2.08203 | 16 ft | 11 kts | 65° |
| 2026-05-04 16:08 | 41.28784 | 2.08502 | 18 ft | 11 kts | 65° |
| 2026-05-04 16:09 | 41.28859 | 2.08722 | 16 ft | 14 kts | 66° |
| 2026-05-04 16:09 | 41.28948 | 2.08980 | 18 ft | 17 kts | 65° |
| 2026-05-04 16:10 | 41.29052 | 2.09284 | 18 ft | 20 kts | 65° |
| 2026-05-04 16:11 | 41.29240 | 2.09833 | 18 ft | 21 kts | 66° |
| 2026-05-04 16:11 | 41.29266 | 2.09909 | 18 ft | 0 kts | 65° |
| 2026-05-04 16:12 | 41.29263 | 2.10057 | 15 ft | 0 kts | 110° |
| 2026-05-04 16:12 | 41.29233 | 2.10165 | 15 ft | 7 kts | 105° |
| 2026-05-04 16:13 | 41.29231 | 2.10295 | 14 ft | 7 kts | 159° |
| 2026-05-04 16:13 | 41.29183 | 2.10214 | 17 ft | 30 kts | 244° |
| 2026-05-04 16:14 | 41.28556 | 2.08375 | 252 ft | 163 kts | 245° |
| 2026-05-04 16:14 | 41.26919 | 2.05980 | 1767 ft | 195 kts | 194° |
| 2026-05-04 16:15 | 41.22189 | 2.04936 | 2445 ft | 236 kts | 187° |
| 2026-05-04 16:16 | 41.19056 | 2.03811 | 3310 ft | 237 kts | 202° |
| 2026-05-04 16:16 | 41.16800 | 1.98486 | 6306 ft | 250 kts | 289° |
| 2026-05-04 16:17 | 41.19124 | 1.94852 | 8180 ft | 272 kts | 311° |
| 2026-05-04 16:18 | 41.23588 | 1.89972 | 10061 ft | 283 kts | 322° |
| 2026-05-04 16:18 | 41.25262 | 1.88564 | 10281 ft | 285 kts | 323° |
| 2026-05-04 16:19 | 41.30795 | 1.87558 | 12192 ft | 309 kts | 38° |
| 2026-05-04 16:19 | 41.32842 | 1.92661 | 13436 ft | 332 kts | 84° |
| 2026-05-04 16:20 | 41.32885 | 2.02141 | 15404 ft | 335 kts | 122° |
| 2026-05-04 16:20 | 41.29566 | 2.05310 | 17612 ft | 293 kts | 173° |
| 2026-05-04 16:21 | 41.23184 | 2.05249 | 18694 ft | 333 kts | 190° |
| 2026-05-04 16:22 | 41.18292 | 2.04477 | 18892 ft | 374 kts | 193° |
| 2026-05-04 16:22 | 41.10292 | 2.01449 | 18925 ft | 417 kts | 192° |
| 2026-05-04 16:23 | 41.01575 | 2.03121 | 18905 ft | 452 kts | 157° |
| 2026-05-04 16:24 | 40.90792 | 2.11957 | 18897 ft | 456 kts | 152° |
| 2026-05-04 16:25 | 40.85402 | 2.16390 | 18895 ft | 457 kts | 152° |
| 2026-05-04 16:26 | 40.74566 | 2.25213 | 18905 ft | 458 kts | 152° |
| 2026-05-04 16:26 | 40.66425 | 2.31819 | 18901 ft | 459 kts | 152° |
| 2026-05-04 16:27 | 40.60731 | 2.35454 | 18902 ft | 452 kts | 164° |
| 2026-05-04 16:28 | 40.51674 | 2.38711 | 18901 ft | 450 kts | 169° |
| 2026-05-04 16:28 | 40.42729 | 2.42615 | 18858 ft | 458 kts | 155° |
| 2026-05-04 16:29 | 40.33752 | 2.54756 | 18765 ft | 469 kts | 133° |
| 2026-05-04 16:30 | 40.27444 | 2.63965 | 17244 ft | 438 kts | 137° |
| 2026-05-04 16:31 | 40.23319 | 2.69648 | 15233 ft | 424 kts | 137° |
| 2026-05-04 16:31 | 40.17364 | 2.77823 | 12191 ft | 403 kts | 137° |
| 2026-05-04 16:32 | 40.11714 | 2.85575 | 9288 ft | 385 kts | 137° |
| 2026-05-04 16:33 | 40.08079 | 2.90546 | 8679 ft | 384 kts | 137° |
| 2026-05-04 16:33 | 40.04400 | 2.95567 | 8433 ft | 382 kts | 137° |
| 2026-05-04 16:34 | 40.00855 | 3.00420 | 8193 ft | 345 kts | 137° |
| 2026-05-04 16:34 | 39.99264 | 3.02601 | 8073 ft | 319 kts | 137° |
| 2026-05-04 16:35 | 39.95097 | 3.08279 | 7911 ft | 274 kts | 138° |
| 2026-05-04 16:35 | 39.90467 | 3.11208 | 7820 ft | 241 kts | 189° |
| 2026-05-04 16:36 | 39.88808 | 3.10986 | 7492 ft | 240 kts | 189° |
| 2026-05-04 16:36 | 39.85516 | 3.10554 | 7037 ft | 237 kts | 189° |
| 2026-05-04 16:37 | 39.82739 | 3.10202 | 6916 ft | 238 kts | 189° |
| 2026-05-04 16:37 | 39.81071 | 3.09997 | 6922 ft | 239 kts | 189° |
| 2026-05-04 16:37 | 39.77819 | 3.09602 | 6923 ft | 230 kts | 189° |
| 2026-05-04 16:38 | 39.74656 | 3.09214 | 6926 ft | 228 kts | 189° |
| 2026-05-04 16:39 | 39.70356 | 3.07437 | 6705 ft | 218 kts | 229° |
| 2026-05-04 16:39 | 39.68693 | 3.04115 | 5850 ft | 219 kts | 239° |
| 2026-05-04 16:40 | 39.67105 | 3.00733 | 4885 ft | 221 kts | 238° |
| 2026-05-04 16:40 | 39.65482 | 2.97281 | 3912 ft | 227 kts | 238° |
| 2026-05-04 16:41 | 39.63873 | 2.93860 | 3177 ft | 219 kts | 238° |
| 2026-05-04 16:41 | 39.61704 | 2.89248 | 2357 ft | 175 kts | 238° |
| 2026-05-04 16:42 | 39.59885 | 2.85382 | 1689 ft | 159 kts | 237° |
| 2026-05-04 16:43 | 39.58770 | 2.83016 | 1271 ft | 153 kts | 236° |
| 2026-05-04 16:43 | 39.57695 | 2.80738 | 847 ft | 138 kts | 234° |
| 2026-05-04 16:43 | 39.57218 | 2.79710 | 672 ft | 133 kts | 238° |
| 2026-05-04 16:44 | 39.55393 | 2.75854 | 46 ft | 116 kts | 237° |
| 2026-05-04 16:45 | 39.54876 | 2.74754 | 38 ft | 16 kts | 238° |
| 2026-05-04 16:46 | 39.54803 | 2.74281 | 38 ft | 15 kts | 269° |
| 2026-05-04 16:46 | 39.54802 | 2.74258 | 38 ft | 0 kts | 269° |
| 2026-05-04 16:48 | 39.54802 | 2.74255 | 38 ft | 2 kts | 269° |
| 2026-05-04 16:48 | 39.54802 | 2.74218 | 38 ft | 6 kts | 269° |
| 2026-05-04 16:49 | 39.54760 | 2.74066 | 38 ft | 12 kts | 238° |
| 2026-05-04 16:49 | 39.54635 | 2.73801 | 38 ft | 22 kts | 239° |
| 2026-05-04 16:50 | 39.54635 | 2.73539 | 38 ft | 9 kts | 321° |
| 2026-05-04 16:50 | 39.54652 | 2.73434 | 38 ft | 0 kts | 258° |